sensor_id;sensor_type;location;lat;lon;timestamp;P1;P2;P0
26185;PMS7003;20067;48.764;9.176;2023-06-26T00:00:49;23.00;20.75;12.50
26185;PMS7003;20067;48.764;9.176;2023-06-26T00:03:15;21.25;18.00;13.00
26185;PMS7003;20067;48.764;9.176;2023-06-26T00:05:41;21.00;21.00;12.00
26185;PMS7003;20067;48.764;9.176;2023-06-26T00:08:07;18.50;16.50;10.50
26185;PMS7003;20067;48.764;9.176;2023-06-26T00:10:33;23.50;20.50;12.00
26185;PMS7003;20067;48.764;9.176;2023-06-26T00:12:59;20.75;18.00;11.25
26185;PMS7003;20067;48.764;9.176;2023-06-26T00:15:26;20.00;19.00;11.00
26185;PMS7003;20067;48.764;9.176;2023-06-26T00:17:56;22.75;19.00;14.25
26185;PMS7003;20067;48.764;9.176;2023-06-26T00:20:23;20.75;19.00;12.00
26185;PMS7003;20067;48.764;9.176;2023-06-26T00:22:50;21.00;18.00;11.00
26185;PMS7003;20067;48.764;9.176;2023-06-26T00:25:16;23.00;19.50;13.00
26185;PMS7003;20067;48.764;9.176;2023-06-26T00:27:41;25.50;22.00;13.25
26185;PMS7003;20067;48.764;9.176;2023-06-26T00:30:07;22.00;19.00;11.00
26185;PMS7003;20067;48.764;9.176;2023-06-26T00:32:33;19.75;17.25;9.50
26185;PMS7003;20067;48.764;9.176;2023-06-26T00:34:59;22.50;20.50;12.00
26185;PMS7003;20067;48.764;9.176;2023-06-26T00:37:25;21.25;18.75;12.00
26185;PMS7003;20067;48.764;9.176;2023-06-26T00:39:51;22.00;18.50;12.50
26185;PMS7003;20067;48.764;9.176;2023-06-26T00:42:17;22.25;20.00;12.75
26185;PMS7003;20067;48.764;9.176;2023-06-26T00:44:42;21.50;19.00;11.00
26185;PMS7003;20067;48.764;9.176;2023-06-26T00:47:09;18.00;17.00;10.50
26185;PMS7003;20067;48.764;9.176;2023-06-26T00:49:39;21.25;20.25;13.00
26185;PMS7003;20067;48.764;9.176;2023-06-26T00:52:05;20.75;20.75;11.00
26185;PMS7003;20067;48.764;9.176;2023-06-26T00:54:31;26.50;21.50;14.50
26185;PMS7003;20067;48.764;9.176;2023-06-26T00:56:57;23.75;19.00;12.00
26185;PMS7003;20067;48.764;9.176;2023-06-26T00:59:23;23.50;20.00;13.00
26185;PMS7003;20067;48.764;9.176;2023-06-26T01:01:48;22.00;21.25;11.50
26185;PMS7003;20067;48.764;9.176;2023-06-26T01:04:14;17.50;17.50;10.75
26185;PMS7003;20067;48.764;9.176;2023-06-26T01:06:44;20.50;18.00;11.00
26185;PMS7003;20067;48.764;9.176;2023-06-26T01:09:14;19.00;19.00;12.00
26185;PMS7003;20067;48.764;9.176;2023-06-26T01:11:41;21.25;18.25;11.75
26185;PMS7003;20067;48.764;9.176;2023-06-26T01:14:07;21.25;19.00;12.00
26185;PMS7003;20067;48.764;9.176;2023-06-26T01:16:33;20.00;17.50;11.00
26185;PMS7003;20067;48.764;9.176;2023-06-26T01:19:00;21.50;17.50;10.75
26185;PMS7003;20067;48.764;9.176;2023-06-26T01:21:27;23.00;18.00;11.25
26185;PMS7003;20067;48.764;9.176;2023-06-26T01:26:29;19.25;17.50;10.00
26185;PMS7003;20067;48.764;9.176;2023-06-26T01:29:00;23.75;20.00;12.50
26185;PMS7003;20067;48.764;9.176;2023-06-26T01:31:28;19.75;19.50;11.00
26185;PMS7003;20067;48.764;9.176;2023-06-26T01:33:56;22.00;18.50;12.00
26185;PMS7003;20067;48.764;9.176;2023-06-26T01:36:23;18.25;17.75;10.00
26185;PMS7003;20067;48.764;9.176;2023-06-26T01:38:49;21.00;17.25;10.75
26185;PMS7003;20067;48.764;9.176;2023-06-26T01:41:16;21.50;20.75;12.00
26185;PMS7003;20067;48.764;9.176;2023-06-26T01:51:35;16.75;16.75;10.25
26185;PMS7003;20067;48.764;9.176;2023-06-26T01:54:10;19.75;19.50;11.00
26185;PMS7003;20067;48.764;9.176;2023-06-26T01:56:42;21.25;19.25;12.50
26185;PMS7003;20067;48.764;9.176;2023-06-26T01:59:10;21.25;21.00;11.50
26185;PMS7003;20067;48.764;9.176;2023-06-26T02:01:39;22.25;18.50;11.25
26185;PMS7003;20067;48.764;9.176;2023-06-26T02:04:04;22.75;20.75;13.00
26185;PMS7003;20067;48.764;9.176;2023-06-26T02:06:30;21.75;19.50;13.00
26185;PMS7003;20067;48.764;9.176;2023-06-26T02:08:56;20.50;19.25;12.00
26185;PMS7003;20067;48.764;9.176;2023-06-26T02:11:22;20.50;19.25;12.50
26185;PMS7003;20067;48.764;9.176;2023-06-26T02:13:48;22.00;20.50;11.00
26185;PMS7003;20067;48.764;9.176;2023-06-26T02:16:13;19.75;19.00;11.25
26185;PMS7003;20067;48.764;9.176;2023-06-26T02:18:39;21.25;19.25;11.25
26185;PMS7003;20067;48.764;9.176;2023-06-26T02:21:06;26.00;19.75;13.00
26185;PMS7003;20067;48.764;9.176;2023-06-26T02:23:32;18.25;18.25;10.75
26185;PMS7003;20067;48.764;9.176;2023-06-26T02:25:57;23.00;17.50;9.75
26185;PMS7003;20067;48.764;9.176;2023-06-26T02:28:23;21.25;20.25;12.75
26185;PMS7003;20067;48.764;9.176;2023-06-26T02:30:49;22.25;19.00;13.00
26185;PMS7003;20067;48.764;9.176;2023-06-26T02:33:14;21.75;19.75;11.25
26185;PMS7003;20067;48.764;9.176;2023-06-26T02:35:40;21.75;17.75;11.75
26185;PMS7003;20067;48.764;9.176;2023-06-26T02:38:06;19.00;18.25;11.00
26185;PMS7003;20067;48.764;9.176;2023-06-26T02:40:32;21.25;20.50;13.00
26185;PMS7003;20067;48.764;9.176;2023-06-26T02:42:58;18.75;16.25;10.00
26185;PMS7003;20067;48.764;9.176;2023-06-26T02:45:24;18.00;17.75;13.00
26185;PMS7003;20067;48.764;9.176;2023-06-26T02:47:49;18.00;18.00;11.00
26185;PMS7003;20067;48.764;9.176;2023-06-26T02:50:15;20.25;18.00;11.00
26185;PMS7003;20067;48.764;9.176;2023-06-26T02:52:41;20.00;20.00;13.00
26185;PMS7003;20067;48.764;9.176;2023-06-26T02:55:06;20.50;18.25;10.25
26185;PMS7003;20067;48.764;9.176;2023-06-26T02:57:32;21.75;18.50;10.50
26185;PMS7003;20067;48.764;9.176;2023-06-26T02:59:58;23.00;18.00;12.50
26185;PMS7003;20067;48.764;9.176;2023-06-26T03:02:23;23.50;18.25;10.00
26185;PMS7003;20067;48.764;9.176;2023-06-26T03:04:49;21.25;20.25;12.75
26185;PMS7003;20067;48.764;9.176;2023-06-26T03:07:15;21.00;20.25;13.00
26185;PMS7003;20067;48.764;9.176;2023-06-26T03:09:41;21.50;20.00;14.00
26185;PMS7003;20067;48.764;9.176;2023-06-26T03:12:06;19.00;17.00;11.00
26185;PMS7003;20067;48.764;9.176;2023-06-26T03:14:33;19.00;18.00;12.00
26185;PMS7003;20067;48.764;9.176;2023-06-26T03:16:59;22.75;21.00;13.00
26185;PMS7003;20067;48.764;9.176;2023-06-26T03:19:28;17.50;16.00;10.00
26185;PMS7003;20067;48.764;9.176;2023-06-26T03:21:54;21.00;20.00;14.75
26185;PMS7003;20067;48.764;9.176;2023-06-26T03:24:20;18.50;18.50;12.25
26185;PMS7003;20067;48.764;9.176;2023-06-26T03:26:46;20.50;19.50;12.25
26185;PMS7003;20067;48.764;9.176;2023-06-26T03:29:11;19.75;17.75;12.00
26185;PMS7003;20067;48.764;9.176;2023-06-26T03:31:37;20.00;20.00;13.00
26185;PMS7003;20067;48.764;9.176;2023-06-26T03:34:03;20.50;19.75;13.00
26185;PMS7003;20067;48.764;9.176;2023-06-26T03:36:29;18.75;18.00;9.50
26185;PMS7003;20067;48.764;9.176;2023-06-26T03:38:54;20.00;19.25;12.75
26185;PMS7003;20067;48.764;9.176;2023-06-26T03:41:22;27.25;20.25;12.75
26185;PMS7003;20067;48.764;9.176;2023-06-26T03:43:48;21.00;19.00;12.75
26185;PMS7003;20067;48.764;9.176;2023-06-26T03:46:14;25.00;17.25;11.50
26185;PMS7003;20067;48.764;9.176;2023-06-26T03:48:40;22.50;21.00;13.50
26185;PMS7003;20067;48.764;9.176;2023-06-26T03:51:06;25.00;21.00;14.00
26185;PMS7003;20067;48.764;9.176;2023-06-26T03:53:33;20.50;20.50;11.50
26185;PMS7003;20067;48.764;9.176;2023-06-26T03:55:58;21.75;18.75;13.25
26185;PMS7003;20067;48.764;9.176;2023-06-26T03:58:24;25.25;22.25;14.00
26185;PMS7003;20067;48.764;9.176;2023-06-26T04:00:50;21.75;20.50;13.75
26185;PMS7003;20067;48.764;9.176;2023-06-26T04:03:16;21.00;21.00;13.75
26185;PMS7003;20067;48.764;9.176;2023-06-26T04:05:42;23.00;21.50;14.00
26185;PMS7003;20067;48.764;9.176;2023-06-26T04:08:08;21.75;18.25;11.50
26185;PMS7003;20067;48.764;9.176;2023-06-26T04:10:34;19.25;18.25;11.00
26185;PMS7003;20067;48.764;9.176;2023-06-26T04:13:01;23.25;19.75;13.00
26185;PMS7003;20067;48.764;9.176;2023-06-26T04:15:27;21.00;17.00;10.75
26185;PMS7003;20067;48.764;9.176;2023-06-26T04:17:52;21.75;19.00;10.00
26185;PMS7003;20067;48.764;9.176;2023-06-26T04:20:18;17.50;15.00;9.25
26185;PMS7003;20067;48.764;9.176;2023-06-26T04:22:44;20.00;20.00;11.75
26185;PMS7003;20067;48.764;9.176;2023-06-26T04:25:10;22.00;19.50;11.50
26185;PMS7003;20067;48.764;9.176;2023-06-26T04:27:36;21.50;19.75;12.50
26185;PMS7003;20067;48.764;9.176;2023-06-26T04:30:02;25.25;21.00;13.75
26185;PMS7003;20067;48.764;9.176;2023-06-26T04:32:28;16.00;15.75;11.00
26185;PMS7003;20067;48.764;9.176;2023-06-26T04:34:54;21.50;19.50;11.75
26185;PMS7003;20067;48.764;9.176;2023-06-26T04:37:20;22.00;21.25;13.00
26185;PMS7003;20067;48.764;9.176;2023-06-26T04:39:45;22.50;20.25;11.00
26185;PMS7003;20067;48.764;9.176;2023-06-26T04:42:11;21.00;20.75;12.75
26185;PMS7003;20067;48.764;9.176;2023-06-26T04:44:37;21.25;20.25;13.75
26185;PMS7003;20067;48.764;9.176;2023-06-26T04:47:03;19.50;17.75;11.75
26185;PMS7003;20067;48.764;9.176;2023-06-26T04:49:29;20.00;17.75;11.00
26185;PMS7003;20067;48.764;9.176;2023-06-26T04:51:55;21.50;20.25;13.50
26185;PMS7003;20067;48.764;9.176;2023-06-26T04:54:21;25.25;22.00;14.25
26185;PMS7003;20067;48.764;9.176;2023-06-26T04:56:47;21.75;20.25;14.00
26185;PMS7003;20067;48.764;9.176;2023-06-26T04:59:13;20.50;18.50;12.00
26185;PMS7003;20067;48.764;9.176;2023-06-26T05:01:39;22.25;20.00;13.00
26185;PMS7003;20067;48.764;9.176;2023-06-26T05:04:05;20.75;17.25;10.50
26185;PMS7003;20067;48.764;9.176;2023-06-26T05:06:31;21.25;18.00;11.50
26185;PMS7003;20067;48.764;9.176;2023-06-26T05:08:57;23.25;19.75;14.25
26185;PMS7003;20067;48.764;9.176;2023-06-26T05:11:22;17.25;17.25;11.50
26185;PMS7003;20067;48.764;9.176;2023-06-26T05:13:49;21.00;20.25;10.75
26185;PMS7003;20067;48.764;9.176;2023-06-26T05:16:15;22.00;18.50;11.00
26185;PMS7003;20067;48.764;9.176;2023-06-26T05:18:40;19.00;18.00;11.50
26185;PMS7003;20067;48.764;9.176;2023-06-26T05:21:06;19.75;16.50;10.25
26185;PMS7003;20067;48.764;9.176;2023-06-26T05:23:32;20.75;19.00;11.00
26185;PMS7003;20067;48.764;9.176;2023-06-26T05:25:59;23.25;20.50;12.00
26185;PMS7003;20067;48.764;9.176;2023-06-26T05:28:28;18.25;17.00;11.00
26185;PMS7003;20067;48.764;9.176;2023-06-26T05:30:56;19.00;18.00;12.00
26185;PMS7003;20067;48.764;9.176;2023-06-26T05:33:23;17.25;16.50;11.25
26185;PMS7003;20067;48.764;9.176;2023-06-26T05:35:53;22.50;20.25;14.00
26185;PMS7003;20067;48.764;9.176;2023-06-26T05:38:20;19.25;18.00;12.00
26185;PMS7003;20067;48.764;9.176;2023-06-26T05:40:46;18.25;16.75;11.00
26185;PMS7003;20067;48.764;9.176;2023-06-26T05:43:12;20.00;19.00;14.00
26185;PMS7003;20067;48.764;9.176;2023-06-26T05:45:38;19.50;18.75;12.00
26185;PMS7003;20067;48.764;9.176;2023-06-26T05:48:05;20.00;19.75;13.25
26185;PMS7003;20067;48.764;9.176;2023-06-26T05:50:30;19.75;18.25;12.00
26185;PMS7003;20067;48.764;9.176;2023-06-26T05:52:56;23.00;22.00;14.00
26185;PMS7003;20067;48.764;9.176;2023-06-26T05:55:22;19.00;18.00;12.00
26185;PMS7003;20067;48.764;9.176;2023-06-26T05:57:49;22.50;20.75;14.75
26185;PMS7003;20067;48.764;9.176;2023-06-26T06:00:15;24.75;19.00;12.00
26185;PMS7003;20067;48.764;9.176;2023-06-26T06:02:42;19.50;18.00;12.25
26185;PMS7003;20067;48.764;9.176;2023-06-26T06:05:08;19.00;17.00;11.00
26185;PMS7003;20067;48.764;9.176;2023-06-26T06:07:34;20.50;17.75;12.25
26185;PMS7003;20067;48.764;9.176;2023-06-26T06:10:01;20.75;19.00;12.00
26185;PMS7003;20067;48.764;9.176;2023-06-26T06:12:28;21.25;19.25;13.00
26185;PMS7003;20067;48.764;9.176;2023-06-26T06:14:53;19.50;18.25;12.00
26185;PMS7003;20067;48.764;9.176;2023-06-26T06:17:20;18.00;17.50;11.50
26185;PMS7003;20067;48.764;9.176;2023-06-26T06:19:46;25.50;20.50;12.00
26185;PMS7003;20067;48.764;9.176;2023-06-26T06:22:11;22.50;19.25;12.50
26185;PMS7003;20067;48.764;9.176;2023-06-26T06:24:37;19.75;16.50;10.00
26185;PMS7003;20067;48.764;9.176;2023-06-26T06:27:03;16.25;16.25;11.00
26185;PMS7003;20067;48.764;9.176;2023-06-26T06:29:29;20.00;18.50;12.00
26185;PMS7003;20067;48.764;9.176;2023-06-26T06:31:54;20.00;18.00;10.50
26185;PMS7003;20067;48.764;9.176;2023-06-26T06:34:20;19.00;16.25;10.50
26185;PMS7003;20067;48.764;9.176;2023-06-26T06:36:46;19.75;17.75;12.00
26185;PMS7003;20067;48.764;9.176;2023-06-26T06:39:12;16.50;15.75;11.00
26185;PMS7003;20067;48.764;9.176;2023-06-26T06:41:38;18.25;17.50;12.00
26185;PMS7003;20067;48.764;9.176;2023-06-26T06:44:03;20.50;17.75;11.00
26185;PMS7003;20067;48.764;9.176;2023-06-26T06:46:29;18.25;18.00;10.25
26185;PMS7003;20067;48.764;9.176;2023-06-26T06:48:55;20.75;19.00;12.00
26185;PMS7003;20067;48.764;9.176;2023-06-26T06:51:21;27.00;21.25;13.25
26185;PMS7003;20067;48.764;9.176;2023-06-26T06:53:47;19.50;18.25;11.00
26185;PMS7003;20067;48.764;9.176;2023-06-26T06:56:12;22.00;19.75;13.25
26185;PMS7003;20067;48.764;9.176;2023-06-26T06:58:38;23.50;21.75;12.50
26185;PMS7003;20067;48.764;9.176;2023-06-26T07:01:07;22.50;21.50;12.75
26185;PMS7003;20067;48.764;9.176;2023-06-26T07:03:34;21.50;20.75;13.50
26185;PMS7003;20067;48.764;9.176;2023-06-26T07:06:00;22.75;22.00;14.00
26185;PMS7003;20067;48.764;9.176;2023-06-26T07:08:26;21.00;19.00;13.25
26185;PMS7003;20067;48.764;9.176;2023-06-26T07:10:52;18.50;18.00;11.75
26185;PMS7003;20067;48.764;9.176;2023-06-26T07:13:18;16.75;16.25;12.25
26185;PMS7003;20067;48.764;9.176;2023-06-26T07:15:44;17.25;16.25;10.50
26185;PMS7003;20067;48.764;9.176;2023-06-26T07:18:13;19.75;17.00;11.50
26185;PMS7003;20067;48.764;9.176;2023-06-26T07:20:39;19.25;18.00;11.00
26185;PMS7003;20067;48.764;9.176;2023-06-26T07:23:05;23.75;22.50;15.50
26185;PMS7003;20067;48.764;9.176;2023-06-26T07:25:31;21.50;21.00;13.50
26185;PMS7003;20067;48.764;9.176;2023-06-26T07:27:56;19.25;17.75;10.25
26185;PMS7003;20067;48.764;9.176;2023-06-26T07:30:22;20.00;17.25;11.00
26185;PMS7003;20067;48.764;9.176;2023-06-26T07:32:49;20.25;20.00;14.00
26185;PMS7003;20067;48.764;9.176;2023-06-26T07:35:14;19.75;19.75;12.25
26185;PMS7003;20067;48.764;9.176;2023-06-26T07:37:40;21.25;19.00;12.75
26185;PMS7003;20067;48.764;9.176;2023-06-26T07:40:07;22.00;21.00;13.25
26185;PMS7003;20067;48.764;9.176;2023-06-26T07:42:33;20.00;19.75;12.00
26185;PMS7003;20067;48.764;9.176;2023-06-26T07:44:59;20.75;19.25;12.75
26185;PMS7003;20067;48.764;9.176;2023-06-26T07:47:25;20.50;20.00;13.00
26185;PMS7003;20067;48.764;9.176;2023-06-26T07:49:51;19.50;18.50;11.50
26185;PMS7003;20067;48.764;9.176;2023-06-26T07:52:17;18.25;18.25;10.00
26185;PMS7003;20067;48.764;9.176;2023-06-26T07:54:43;24.00;20.00;12.25
26185;PMS7003;20067;48.764;9.176;2023-06-26T07:57:09;19.00;18.75;11.75
26185;PMS7003;20067;48.764;9.176;2023-06-26T07:59:36;19.00;18.25;11.00
26185;PMS7003;20067;48.764;9.176;2023-06-26T08:02:02;21.25;18.25;12.00
26185;PMS7003;20067;48.764;9.176;2023-06-26T08:04:29;18.00;17.00;10.00
26185;PMS7003;20067;48.764;9.176;2023-06-26T08:06:57;22.25;18.00;11.00
26185;PMS7003;20067;48.764;9.176;2023-06-26T08:09:25;18.00;16.50;10.75
26185;PMS7003;20067;48.764;9.176;2023-06-26T08:11:51;20.00;17.50;10.00
26185;PMS7003;20067;48.764;9.176;2023-06-26T08:14:18;18.50;17.50;12.00
26185;PMS7003;20067;48.764;9.176;2023-06-26T08:16:44;18.00;18.00;11.50
26185;PMS7003;20067;48.764;9.176;2023-06-26T08:19:11;17.75;15.00;10.25
26185;PMS7003;20067;48.764;9.176;2023-06-26T08:21:37;21.00;17.25;11.75
26185;PMS7003;20067;48.764;9.176;2023-06-26T08:24:03;18.50;17.00;10.25
26185;PMS7003;20067;48.764;9.176;2023-06-26T08:26:28;18.00;18.00;13.00
26185;PMS7003;20067;48.764;9.176;2023-06-26T08:28:54;16.00;16.00;12.00
26185;PMS7003;20067;48.764;9.176;2023-06-26T08:31:20;17.00;16.50;12.00
26185;PMS7003;20067;48.764;9.176;2023-06-26T08:33:46;19.00;18.25;11.50
26185;PMS7003;20067;48.764;9.176;2023-06-26T08:36:12;17.50;16.50;11.00
26185;PMS7003;20067;48.764;9.176;2023-06-26T08:38:38;19.50;18.00;12.00
26185;PMS7003;20067;48.764;9.176;2023-06-26T08:41:06;16.50;16.25;10.25
26185;PMS7003;20067;48.764;9.176;2023-06-26T08:43:33;18.00;17.00;11.00
26185;PMS7003;20067;48.764;9.176;2023-06-26T08:46:00;16.75;16.25;9.25
26185;PMS7003;20067;48.764;9.176;2023-06-26T08:48:26;16.25;14.75;10.00
26185;PMS7003;20067;48.764;9.176;2023-06-26T08:50:57;19.00;16.75;11.25
26185;PMS7003;20067;48.764;9.176;2023-06-26T08:56:17;18.25;16.00;11.25
26185;PMS7003;20067;48.764;9.176;2023-06-26T08:58:46;15.75;15.50;10.00
26185;PMS7003;20067;48.764;9.176;2023-06-26T09:01:12;15.00;14.50;9.75
26185;PMS7003;20067;48.764;9.176;2023-06-26T09:03:38;17.50;17.50;10.25
26185;PMS7003;20067;48.764;9.176;2023-06-26T09:06:04;17.00;16.00;10.00
26185;PMS7003;20067;48.764;9.176;2023-06-26T09:08:29;15.25;14.00;9.00
26185;PMS7003;20067;48.764;9.176;2023-06-26T09:10:55;16.50;16.50;11.50
26185;PMS7003;20067;48.764;9.176;2023-06-26T09:13:21;14.75;14.00;8.75
26185;PMS7003;20067;48.764;9.176;2023-06-26T09:15:47;15.25;15.25;10.25
26185;PMS7003;20067;48.764;9.176;2023-06-26T09:18:12;18.00;15.00;10.25
26185;PMS7003;20067;48.764;9.176;2023-06-26T09:20:41;16.50;14.25;10.00
26185;PMS7003;20067;48.764;9.176;2023-06-26T09:23:10;17.75;15.75;10.50
26185;PMS7003;20067;48.764;9.176;2023-06-26T09:25:38;16.00;16.00;10.00
26185;PMS7003;20067;48.764;9.176;2023-06-26T09:28:05;16.25;15.25;10.25
26185;PMS7003;20067;48.764;9.176;2023-06-26T09:30:31;16.50;16.00;11.00
26185;PMS7003;20067;48.764;9.176;2023-06-26T09:33:00;18.75;17.00;11.75
26185;PMS7003;20067;48.764;9.176;2023-06-26T09:35:38;17.75;15.00;10.00
26185;PMS7003;20067;48.764;9.176;2023-06-26T09:38:04;17.25;16.00;11.00
26185;PMS7003;20067;48.764;9.176;2023-06-26T09:40:30;14.75;13.75;10.00
26185;PMS7003;20067;48.764;9.176;2023-06-26T09:43:02;18.75;17.25;11.00
26185;PMS7003;20067;48.764;9.176;2023-06-26T09:45:28;16.50;16.00;10.00
26185;PMS7003;20067;48.764;9.176;2023-06-26T09:47:59;17.00;15.75;10.50
26185;PMS7003;20067;48.764;9.176;2023-06-26T09:50:27;16.25;15.25;9.50
26185;PMS7003;20067;48.764;9.176;2023-06-26T09:52:53;16.00;15.50;11.00
26185;PMS7003;20067;48.764;9.176;2023-06-26T09:55:20;14.50;14.25;10.00
26185;PMS7003;20067;48.764;9.176;2023-06-26T09:57:51;17.00;16.25;10.25
26185;PMS7003;20067;48.764;9.176;2023-06-26T10:00:17;16.00;15.75;11.75
26185;PMS7003;20067;48.764;9.176;2023-06-26T10:02:43;17.00;17.00;11.00
26185;PMS7003;20067;48.764;9.176;2023-06-26T10:05:09;16.00;15.50;11.00
26185;PMS7003;20067;48.764;9.176;2023-06-26T10:07:35;15.25;15.25;11.25
26185;PMS7003;20067;48.764;9.176;2023-06-26T10:10:03;17.00;16.00;11.00
26185;PMS7003;20067;48.764;9.176;2023-06-26T10:12:32;18.00;17.00;11.00
26185;PMS7003;20067;48.764;9.176;2023-06-26T10:14:58;18.00;17.50;12.00
26185;PMS7003;20067;48.764;9.176;2023-06-26T10:17:30;16.75;16.00;10.00
26185;PMS7003;20067;48.764;9.176;2023-06-26T10:20:00;19.00;18.75;12.00
26185;PMS7003;20067;48.764;9.176;2023-06-26T10:22:29;17.25;15.75;10.75
26185;PMS7003;20067;48.764;9.176;2023-06-26T10:25:04;17.75;16.50;11.75
26185;PMS7003;20067;48.764;9.176;2023-06-26T10:27:36;21.00;18.75;12.75
26185;PMS7003;20067;48.764;9.176;2023-06-26T10:30:06;20.25;19.50;13.00
26185;PMS7003;20067;48.764;9.176;2023-06-26T10:32:42;23.75;21.75;15.00
26185;PMS7003;20067;48.764;9.176;2023-06-26T10:35:10;20.25;19.75;14.00
26185;PMS7003;20067;48.764;9.176;2023-06-26T10:40:12;19.50;19.50;13.25
26185;PMS7003;20067;48.764;9.176;2023-06-26T10:42:40;21.25;20.50;14.25
26185;PMS7003;20067;48.764;9.176;2023-06-26T10:45:09;23.00;21.50;14.00
26185;PMS7003;20067;48.764;9.176;2023-06-26T10:47:39;23.50;21.25;13.50
26185;PMS7003;20067;48.764;9.176;2023-06-26T10:53:08;22.00;22.00;14.75
26185;PMS7003;20067;48.764;9.176;2023-06-26T10:55:47;18.50;17.50;12.00
26185;PMS7003;20067;48.764;9.176;2023-06-26T10:58:41;18.25;18.00;12.00
26185;PMS7003;20067;48.764;9.176;2023-06-26T11:03:49;19.25;18.25;14.25
26185;PMS7003;20067;48.764;9.176;2023-06-26T11:06:18;21.50;20.25;14.25
26185;PMS7003;20067;48.764;9.176;2023-06-26T11:08:49;24.00;20.75;13.00
26185;PMS7003;20067;48.764;9.176;2023-06-26T11:11:20;20.00;17.75;12.00
26185;PMS7003;20067;48.764;9.176;2023-06-26T11:13:46;21.00;19.75;13.25
26185;PMS7003;20067;48.764;9.176;2023-06-26T11:16:13;21.50;20.00;15.00
26185;PMS7003;20067;48.764;9.176;2023-06-26T11:18:40;19.00;17.75;12.25
26185;PMS7003;20067;48.764;9.176;2023-06-26T11:21:10;18.00;17.00;11.25
26185;PMS7003;20067;48.764;9.176;2023-06-26T11:23:38;19.00;18.50;12.25
26185;PMS7003;20067;48.764;9.176;2023-06-26T11:26:18;17.25;17.00;11.25
26185;PMS7003;20067;48.764;9.176;2023-06-26T11:28:48;20.00;19.75;13.00
26185;PMS7003;20067;48.764;9.176;2023-06-26T11:31:32;22.00;21.50;16.00
26185;PMS7003;20067;48.764;9.176;2023-06-26T11:34:00;21.75;20.25;12.75
26185;PMS7003;20067;48.764;9.176;2023-06-26T11:36:28;18.25;18.00;11.00
26185;PMS7003;20067;48.764;9.176;2023-06-26T11:38:55;19.00;19.00;12.75
26185;PMS7003;20067;48.764;9.176;2023-06-26T11:41:29;19.50;18.75;12.75
26185;PMS7003;20067;48.764;9.176;2023-06-26T11:43:56;21.75;18.00;13.00
26185;PMS7003;20067;48.764;9.176;2023-06-26T11:46:29;18.25;17.00;12.00
26185;PMS7003;20067;48.764;9.176;2023-06-26T11:48:56;20.75;18.50;13.50
26185;PMS7003;20067;48.764;9.176;2023-06-26T11:51:22;18.00;17.00;12.25
26185;PMS7003;20067;48.764;9.176;2023-06-26T11:53:48;19.75;18.50;13.25
26185;PMS7003;20067;48.764;9.176;2023-06-26T11:56:14;19.50;19.50;13.25
26185;PMS7003;20067;48.764;9.176;2023-06-26T12:01:38;16.50;16.50;11.50
26185;PMS7003;20067;48.764;9.176;2023-06-26T12:04:06;20.75;18.75;13.00
26185;PMS7003;20067;48.764;9.176;2023-06-26T12:06:34;22.00;19.25;14.00
26185;PMS7003;20067;48.764;9.176;2023-06-26T12:09:02;19.50;19.50;13.75
26185;PMS7003;20067;48.764;9.176;2023-06-26T12:11:30;16.00;15.50;11.00
26185;PMS7003;20067;48.764;9.176;2023-06-26T12:13:57;20.00;18.00;14.00
26185;PMS7003;20067;48.764;9.176;2023-06-26T12:16:24;20.75;18.75;12.50
26185;PMS7003;20067;48.764;9.176;2023-06-26T12:18:51;18.25;17.75;11.75
26185;PMS7003;20067;48.764;9.176;2023-06-26T12:24:09;21.00;19.00;13.00
26185;PMS7003;20067;48.764;9.176;2023-06-26T12:26:41;18.25;17.00;12.50
26185;PMS7003;20067;48.764;9.176;2023-06-26T12:29:17;19.75;17.75;13.25
26185;PMS7003;20067;48.764;9.176;2023-06-26T12:31:51;16.25;15.75;11.75
26185;PMS7003;20067;48.764;9.176;2023-06-26T12:34:18;18.75;17.25;12.00
26185;PMS7003;20067;48.764;9.176;2023-06-26T12:36:46;19.00;17.75;12.75
26185;PMS7003;20067;48.764;9.176;2023-06-26T12:39:17;19.00;18.00;12.00
26185;PMS7003;20067;48.764;9.176;2023-06-26T12:41:48;20.00;20.00;14.00
26185;PMS7003;20067;48.764;9.176;2023-06-26T12:44:20;19.00;18.00;12.00
26185;PMS7003;20067;48.764;9.176;2023-06-26T12:46:59;15.25;15.00;11.25
26185;PMS7003;20067;48.764;9.176;2023-06-26T12:49:45;20.00;18.00;12.00
26185;PMS7003;20067;48.764;9.176;2023-06-26T12:52:15;20.00;18.00;12.00
26185;PMS7003;20067;48.764;9.176;2023-06-26T12:54:42;16.75;16.75;12.25
26185;PMS7003;20067;48.764;9.176;2023-06-26T12:57:08;18.00;15.75;11.00
26185;PMS7003;20067;48.764;9.176;2023-06-26T12:59:38;17.50;16.75;11.00
26185;PMS7003;20067;48.764;9.176;2023-06-26T13:02:04;15.75;15.00;11.00
26185;PMS7003;20067;48.764;9.176;2023-06-26T13:04:30;16.25;16.00;11.00
26185;PMS7003;20067;48.764;9.176;2023-06-26T13:06:56;16.75;16.00;12.00
26185;PMS7003;20067;48.764;9.176;2023-06-26T13:09:23;20.75;18.25;11.00
26185;PMS7003;20067;48.764;9.176;2023-06-26T13:11:50;16.25;16.00;12.00
26185;PMS7003;20067;48.764;9.176;2023-06-26T13:14:16;21.00;17.00;12.00
26185;PMS7003;20067;48.764;9.176;2023-06-26T13:16:42;15.50;14.75;10.50
26185;PMS7003;20067;48.764;9.176;2023-06-26T13:19:08;16.50;15.50;11.00
26185;PMS7003;20067;48.764;9.176;2023-06-26T13:21:34;17.00;16.25;11.00
26185;PMS7003;20067;48.764;9.176;2023-06-26T13:24:00;17.00;16.25;10.00
26185;PMS7003;20067;48.764;9.176;2023-06-26T13:26:26;15.75;15.00;9.50
26185;PMS7003;20067;48.764;9.176;2023-06-26T13:28:53;18.50;15.50;10.25
26185;PMS7003;20067;48.764;9.176;2023-06-26T13:31:19;17.25;17.00;11.50
26185;PMS7003;20067;48.764;9.176;2023-06-26T13:33:46;17.25;16.75;11.75
26185;PMS7003;20067;48.764;9.176;2023-06-26T13:36:13;17.50;13.75;8.00
26185;PMS7003;20067;48.764;9.176;2023-06-26T13:38:39;14.50;13.75;9.50
26185;PMS7003;20067;48.764;9.176;2023-06-26T13:41:05;13.00;13.00;8.75
26185;PMS7003;20067;48.764;9.176;2023-06-26T13:43:30;14.00;13.50;8.00
26185;PMS7003;20067;48.764;9.176;2023-06-26T13:45:56;18.00;18.00;11.25
26185;PMS7003;20067;48.764;9.176;2023-06-26T13:48:22;15.50;12.75;8.25
26185;PMS7003;20067;48.764;9.176;2023-06-26T13:50:49;13.50;12.50;8.00
26185;PMS7003;20067;48.764;9.176;2023-06-26T13:53:15;13.50;13.50;7.25
26185;PMS7003;20067;48.764;9.176;2023-06-26T13:55:41;14.50;13.00;8.00
26185;PMS7003;20067;48.764;9.176;2023-06-26T13:58:07;16.00;15.00;10.00
26185;PMS7003;20067;48.764;9.176;2023-06-26T14:00:34;12.75;12.00;7.25
26185;PMS7003;20067;48.764;9.176;2023-06-26T14:03:01;13.25;12.00;6.75
26185;PMS7003;20067;48.764;9.176;2023-06-26T14:05:28;12.50;12.00;8.50
26185;PMS7003;20067;48.764;9.176;2023-06-26T14:07:55;12.50;12.50;8.50
26185;PMS7003;20067;48.764;9.176;2023-06-26T14:10:21;12.00;12.00;6.25
26185;PMS7003;20067;48.764;9.176;2023-06-26T14:12:47;13.25;11.75;7.00